Time;durP1;ratioP1;P1;durP2;ratioP2;P2;SDS_P1;SDS_P2;PMS_P1;PMS_P2;Temp;Humidity;BMP_temperature;BMP_pressure;BME280_temperature;BME280_humidity;BME280_pressure;Samples;Min_cycle;Max_cycle;Signal;HPM_P1;HPM_P2
2023/10/05 00:03:47;;;;;;;1.83;1.43;;;22.30;58.90;;;;;;5012083;28;20439;-66
2023/10/05 00:06:27;;;;;;;2.33;2.13;;;22.30;58.90;;;;;;5011794;28;20392;-67
2023/10/05 00:08:56;;;;;;;2.20;1.57;;;22.30;58.90;;;;;;5011831;28;20403;-67
2023/10/05 00:11:36;;;;;;;2.17;1.97;;;22.30;58.90;;;;;;5013121;28;20510;-67
2023/10/05 00:14:07;;;;;;;2.00;1.60;;;22.30;58.90;;;;;;5011829;28;20837;-67
2023/10/05 00:16:36;;;;;;;1.80;1.50;;;22.30;58.90;;;;;;5011199;28;20422;-66
2023/10/05 00:19:13;;;;;;;2.80;1.63;;;22.30;58.90;;;;;;5011646;28;20409;-67
2023/10/05 00:21:55;;;;;;;2.07;1.83;;;22.30;58.90;;;;;;5011567;28;20392;-67
2023/10/05 00:24:56;;;;;;;3.27;2.00;;;22.30;58.90;;;;;;5011401;28;20891;-67
2023/10/05 00:27:15;;;;;;;2.53;2.27;;;22.30;59.00;;;;;;5008331;28;20427;-67
2023/10/05 00:29:41;;;;;;;2.00;1.70;;;22.30;59.00;;;;;;5011420;28;20407;-66
2023/10/05 00:32:23;;;;;;;2.80;1.73;;;22.30;59.00;;;;;;5011654;28;20439;-67
2023/10/05 00:34:55;;;;;;;1.80;1.47;;;22.30;58.90;;;;;;5011207;28;20446;-67
2023/10/05 00:37:22;;;;;;;1.80;1.57;;;22.30;59.00;;;;;;5011326;28;20786;-67
2023/10/05 00:39:49;;;;;;;1.33;1.23;;;22.30;59.00;;;;;;5011262;28;20764;-67
2023/10/05 00:42:16;;;;;;;2.10;1.60;;;22.30;59.00;;;;;;5011217;28;20531;-66
2023/10/05 00:44:42;;;;;;;2.10;1.57;;;22.30;59.00;;;;;;4993413;28;20467;-67
2023/10/05 00:47:12;;;;;;;2.20;1.70;;;22.30;59.00;;;;;;5011164;28;20404;-66
2023/10/05 00:49:53;;;;;;;1.87;1.63;;;22.30;59.00;;;;;;5011328;28;20873;-67
2023/10/05 00:52:24;;;;;;;1.80;1.50;;;22.30;59.00;;;;;;5011155;28;20445;-67
2023/10/05 00:54:52;;;;;;;2.10;1.60;;;22.30;59.00;;;;;;5010921;28;21065;-67
2023/10/05 00:57:28;;;;;;;2.13;1.60;;;22.30;59.00;;;;;;5010998;28;20408;-67
2023/10/05 01:02:23;;;;;;;1.87;1.67;;;22.30;59.00;;;;;;5011247;28;20450;-67
2023/10/05 01:05:01;;;;;;;1.83;1.37;;;22.30;59.00;;;;;;5010886;28;20455;-68
2023/10/05 01:12:43;;;;;;;1.70;1.40;;;22.30;59.00;;;;;;5010752;28;20501;-67
2023/10/05 01:15:10;;;;;;;2.63;1.90;;;22.30;59.00;;;;;;5010851;28;20450;-66
2023/10/05 01:17:36;;;;;;;1.57;1.47;;;22.30;59.00;;;;;;5010835;28;20411;-67
2023/10/05 01:20:22;;;;;;;1.93;1.70;;;22.20;59.40;;;;;;5010848;28;20415;-67
2023/10/05 01:22:58;;;;;;;2.00;1.40;;;22.30;59.00;;;;;;5010714;28;20391;-67
2023/10/05 01:25:25;;;;;;;1.77;1.67;;;22.30;59.00;;;;;;5010795;28;20453;-67
2023/10/05 01:27:52;;;;;;;2.00;1.60;;;22.20;58.90;;;;;;5010756;28;20451;-67
2023/10/05 01:30:19;;;;;;;1.53;1.33;;;22.20;58.90;;;;;;5014647;28;20407;-67
2023/10/05 01:32:46;;;;;;;2.37;1.53;;;22.20;58.90;;;;;;5014824;28;20438;-67
2023/10/05 01:35:13;;;;;;;1.73;1.40;;;22.20;58.90;;;;;;5014599;28;20471;-67
2023/10/05 01:37:44;;;;;;;1.90;1.43;;;22.20;58.90;;;;;;5014554;28;20404;-67
2023/10/05 01:42:48;;;;;;;1.50;1.27;;;22.20;58.90;;;;;;5014727;28;20395;-67
2023/10/05 01:45:29;;;;;;;2.00;1.50;;;22.20;58.90;;;;;;5014483;28;20414;-66
2023/10/05 01:47:55;;;;;;;1.70;1.50;;;22.30;59.00;;;;;;4996893;28;20415;-67
2023/10/05 01:50:26;;;;;;;1.40;1.30;;;22.20;58.90;;;;;;5014516;28;20465;-67
2023/10/05 01:53:08;;;;;;;1.60;1.20;;;22.30;59.00;;;;;;5014234;28;20392;-67
2023/10/05 01:55:35;;;;;;;1.83;1.50;;;22.20;58.90;;;;;;5014129;28;20446;-67
2023/10/05 01:58:01;;;;;;;1.93;1.63;;;22.20;58.90;;;;;;5014088;28;20415;-67
2023/10/05 02:00:26;;;;;;;2.30;1.20;;;22.20;58.90;;;;;;5014168;28;20407;-67
2023/10/05 02:02:55;;;;;;;1.87;1.50;;;22.20;58.90;;;;;;5014115;28;20418;-67
2023/10/05 02:05:21;;;;;;;1.60;1.20;;;22.20;58.90;;;;;;5014039;28;20172;-66
2023/10/05 02:07:50;;;;;;;1.73;1.30;;;22.20;58.90;;;;;;5013991;28;20941;-67
2023/10/05 02:10:21;;;;;;;1.80;1.40;;;22.20;58.90;;;;;;5013894;28;20592;-67
2023/10/05 02:12:54;;;;;;;1.70;1.50;;;22.20;58.90;;;;;;5013827;28;20395;-68
2023/10/05 02:15:28;;;;;;;1.90;1.67;;;22.20;58.90;;;;;;5013822;28;20438;-66
2023/10/05 02:17:54;;;;;;;1.83;1.50;;;22.20;58.90;;;;;;5013892;28;20479;-67
2023/10/05 02:20:38;;;;;;;1.67;1.50;;;22.20;58.90;;;;;;5013786;28;20403;-68
2023/10/05 02:23:24;;;;;;;1.50;1.30;;;22.20;58.90;;;;;;5013637;28;20459;-65
2023/10/05 02:25:56;;;;;;;1.53;1.23;;;22.20;58.90;;;;;;5013488;28;20422;-64
2023/10/05 02:28:27;;;;;;;1.90;1.30;;;22.20;58.90;;;;;;5013680;28;20419;-64
2023/10/05 02:30:57;;;;;;;1.83;1.47;;;22.20;58.90;;;;;;5013834;28;20395;-65
2023/10/05 02:33:31;;;;;;;1.87;1.47;;;22.20;58.90;;;;;;5013531;28;20509;-64
2023/10/05 02:36:09;;;;;;;1.50;1.33;;;22.20;58.90;;;;;;5013426;28;20438;-65
2023/10/05 02:38:34;;;;;;;1.93;1.57;;;22.20;58.90;;;;;;5013749;28;20735;-65
2023/10/05 02:41:04;;;;;;;1.87;1.27;;;22.20;58.90;;;;;;5013021;28;20411;-65
2023/10/05 02:43:38;;;;;;;1.23;1.13;;;22.20;58.90;;;;;;5013060;28;20196;-65
2023/10/05 02:46:10;;;;;;;2.00;1.50;;;22.20;58.90;;;;;;5013234;28;20399;-65
2023/10/05 02:48:36;;;;;;;1.77;1.30;;;22.20;58.90;;;;;;5013329;28;20399;-64
2023/10/05 02:51:05;;;;;;;1.50;1.40;;;22.20;58.90;;;;;;5013465;28;20947;-65
2023/10/05 02:53:40;;;;;;;1.40;1.10;;;22.20;58.90;;;;;;5013220;28;20524;-66
2023/10/05 02:56:20;;;;;;;1.93;1.20;;;22.20;58.90;;;;;;5013363;28;20884;-65
2023/10/05 02:58:48;;;;;;;1.50;1.20;;;22.20;58.90;;;;;;5013124;28;20987;-66
2023/10/05 03:01:15;;;;;;;2.13;1.37;;;22.20;58.90;;;;;;5012960;28;20407;-66
2023/10/05 03:03:43;;;;;;;1.53;1.30;;;22.20;58.90;;;;;;5012810;28;20439;-65
2023/10/05 03:06:10;;;;;;;1.37;1.00;;;22.20;58.90;;;;;;5012895;28;20430;-65
2023/10/05 03:08:36;;;;;;;1.73;1.47;;;22.20;58.90;;;;;;5012936;28;20537;-68
2023/10/05 03:11:08;;;;;;;1.90;1.40;;;22.20;58.90;;;;;;5012753;28;20430;-65
2023/10/05 03:13:38;;;;;;;2.23;1.17;;;22.20;58.90;;;;;;5012681;28;20446;-65
2023/10/05 03:16:09;;;;;;;1.27;1.17;;;22.20;58.90;;;;;;5012768;28;20923;-66
2023/10/05 03:18:40;;;;;;;1.43;1.27;;;22.20;58.90;;;;;;5012704;28;20759;-65
2023/10/05 03:21:13;;;;;;;1.33;1.20;;;22.20;58.90;;;;;;5012609;28;20387;-65
2023/10/05 03:23:42;;;;;;;1.20;0.93;;;22.20;58.90;;;;;;5012448;28;20435;-66
2023/10/05 03:26:16;;;;;;;1.70;1.30;;;22.20;58.90;;;;;;5012440;28;20419;-65
2023/10/05 03:28:42;;;;;;;1.53;1.40;;;22.20;58.90;;;;;;5012519;28;20750;-65
2023/10/05 03:31:19;;;;;;;1.87;1.10;;;22.20;58.90;;;;;;5012457;28;20426;-66
2023/10/05 03:33:46;;;;;;;1.73;1.30;;;22.20;58.90;;;;;;5012408;28;20226;-65
2023/10/05 03:36:16;;;;;;;1.50;1.23;;;22.10;58.80;;;;;;5012372;28;21078;-65
2023/10/05 03:38:43;;;;;;;1.57;1.47;;;22.20;58.90;;;;;;5012599;28;20480;-65
2023/10/05 03:41:15;;;;;;;1.70;1.20;;;22.10;58.80;;;;;;5012512;28;20497;-65
2023/10/05 03:43:43;;;;;;;1.57;1.03;;;22.10;58.80;;;;;;5012151;28;20526;-65
2023/10/05 03:46:09;;;;;;;1.50;1.20;;;22.10;58.80;;;;;;5012399;28;20427;-65
2023/10/05 03:48:38;;;;;;;2.03;1.50;;;22.10;58.80;;;;;;5012374;28;20994;-66
2023/10/05 03:51:17;;;;;;;1.53;1.20;;;22.10;58.80;;;;;;5011416;28;20180;-66
2023/10/05 03:53:51;;;;;;;1.87;1.37;;;22.10;59.40;;;;;;5011966;28;20951;-66
2023/10/05 03:56:18;;;;;;;1.40;1.17;;;22.10;58.80;;;;;;5011959;28;20384;-66
2023/10/05 03:58:47;;;;;;;1.53;1.10;;;22.10;58.80;;;;;;5011909;28;20464;-66
2023/10/05 04:01:13;;;;;;;1.60;1.20;;;22.10;58.80;;;;;;5011855;28;20404;-66
2023/10/05 04:03:40;;;;;;;1.33;1.07;;;22.10;58.80;;;;;;5011736;28;20449;-66
2023/10/05 04:06:17;;;;;;;1.80;1.40;;;22.10;58.80;;;;;;5011927;28;20411;-65
2023/10/05 04:08:50;;;;;;;1.30;1.20;;;22.10;58.80;;;;;;5011793;28;20387;-66
2023/10/05 04:11:17;;;;;;;1.93;1.27;;;22.10;58.80;;;;;;5011958;28;20482;-66
2023/10/05 04:13:43;;;;;;;1.80;1.30;;;22.10;58.90;;;;;;5011813;28;20431;-66
2023/10/05 04:16:18;;;;;;;1.77;1.10;;;22.10;58.80;;;;;;5011454;28;20790;-65
2023/10/05 04:18:46;;;;;;;1.50;1.20;;;22.10;58.80;;;;;;5011585;28;20778;-66
2023/10/05 04:21:15;;;;;;;1.10;0.90;;;22.10;58.80;;;;;;5011560;28;20414;-66
2023/10/05 04:23:42;;;;;;;1.80;1.50;;;22.10;58.80;;;;;;5011469;28;20478;-65
2023/10/05 04:26:09;;;;;;;1.60;1.30;;;22.10;58.80;;;;;;5011442;28;20440;-66
2023/10/05 04:28:35;;;;;;;1.80;1.57;;;22.10;58.80;;;;;;5011413;28;20577;-66
2023/10/05 04:31:01;;;;;;;1.30;1.10;;;22.10;58.80;;;;;;5011732;28;20419;-66
2023/10/05 04:33:27;;;;;;;1.90;1.23;;;22.10;58.80;;;;;;5010312;28;20493;-66
2023/10/05 04:35:53;;;;;;;1.30;1.07;;;22.10;58.80;;;;;;5011140;28;20472;-66
2023/10/05 04:38:25;;;;;;;1.27;1.10;;;22.10;58.80;;;;;;5011294;28;20834;-66
2023/10/05 04:40:51;;;;;;;1.40;1.13;;;22.10;58.80;;;;;;5011299;28;20399;-66
2023/10/05 04:43:19;;;;;;;1.33;1.00;;;22.10;58.80;;;;;;5011149;28;20431;-66
2023/10/05 04:45:46;;;;;;;2.00;1.40;;;22.10;58.80;;;;;;5011115;28;20423;-66
2023/10/05 04:48:12;;;;;;;1.10;0.90;;;22.10;58.80;;;;;;5011546;28;20434;-66
2023/10/05 04:50:41;;;;;;;1.33;1.13;;;22.10;58.90;;;;;;5011392;28;20422;-66
2023/10/05 04:53:10;;;;;;;1.40;1.27;;;22.10;58.80;;;;;;5011048;28;20476;-67
2023/10/05 04:55:44;;;;;;;1.50;1.20;;;22.10;58.80;;;;;;5010963;28;20457;-66
2023/10/05 04:58:31;;;;;;;1.40;1.17;;;22.10;58.80;;;;;;5011025;28;20919;-66
2023/10/05 05:01:56;;;;;;;2.60;1.53;;;22.10;58.90;;;;;;5011392;28;20395;-66
2023/10/05 05:03:55;;;;;;;1.40;1.20;;;22.10;58.80;;;;;;4989071;28;20439;-66
2023/10/05 05:06:21;;;;;;;1.30;0.90;;;22.10;58.80;;;;;;5010757;28;20438;-66
2023/10/05 05:08:50;;;;;;;1.10;0.93;;;22.10;58.80;;;;;;5011170;28;20418;-68
2023/10/05 05:11:19;;;;;;;1.40;1.10;;;22.10;58.90;;;;;;5010846;28;20727;-66
2023/10/05 05:13:48;;;;;;;1.43;1.10;;;22.10;58.80;;;;;;5010937;28;20462;-66
2023/10/05 05:16:17;;;;;;;1.20;1.10;;;22.10;59.40;;;;;;5010832;28;20407;-67
2023/10/05 05:18:43;;;;;;;1.40;1.13;;;22.10;58.80;;;;;;5010801;28;20420;-65
2023/10/05 05:21:11;;;;;;;1.30;1.07;;;22.10;58.80;;;;;;4993143;28;20416;-66
2023/10/05 05:23:40;;;;;;;1.43;1.07;;;22.10;58.90;;;;;;5010664;28;20485;-65
2023/10/05 05:26:09;;;;;;;1.60;1.23;;;22.10;58.80;;;;;;5010791;28;20415;-65
2023/10/05 05:28:37;;;;;;;1.23;1.03;;;22.10;58.80;;;;;;5010658;28;20424;-65
2023/10/05 05:31:07;;;;;;;1.10;0.80;;;22.10;58.80;;;;;;5010994;28;20784;-65
2023/10/05 05:33:36;;;;;;;1.10;0.90;;;22.10;58.80;;;;;;5010571;28;20450;-67
2023/10/05 05:36:10;;;;;;;1.83;1.27;;;22.10;58.80;;;;;;5010575;28;20438;-66
2023/10/05 05:38:38;;;;;;;1.30;1.00;;;22.10;58.90;;;;;;5010840;28;20407;-67
2023/10/05 05:41:20;;;;;;;1.30;0.93;;;22.10;58.80;;;;;;5004986;28;20442;-67
2023/10/05 05:43:46;;;;;;;1.47;1.27;;;22.10;58.90;;;;;;4989518;28;20451;-67
2023/10/05 05:46:13;;;;;;;1.60;1.20;;;22.10;58.90;;;;;;4988629;28;20423;-67
2023/10/05 05:48:40;;;;;;;1.10;0.90;;;22.10;58.90;;;;;;5006945;28;20215;-65
2023/10/05 05:51:10;;;;;;;1.40;1.10;;;22.10;58.80;;;;;;5009006;28;20473;-64
2023/10/05 05:53:36;;;;;;;1.33;1.07;;;22.10;58.80;;;;;;5002967;28;20471;-66
2023/10/05 05:56:03;;;;;;;1.10;0.90;;;22.10;58.80;;;;;;5017080;28;20802;-67
2023/10/05 05:58:28;;;;;;;1.37;1.00;;;22.10;58.80;;;;;;4995651;28;20496;-65
2023/10/05 06:00:55;;;;;;;1.43;1.10;;;22.00;58.80;;;;;;5006871;28;20446;-67
2023/10/05 06:03:21;;;;;;;1.67;1.40;;;22.00;58.80;;;;;;5005606;28;20201;-66
2023/10/05 06:05:50;;;;;;;1.50;1.07;;;22.10;58.90;;;;;;5002847;28;20446;-66
2023/10/05 06:08:16;;;;;;;1.50;1.13;;;22.00;58.80;;;;;;5009201;28;20665;-67
2023/10/05 06:10:46;;;;;;;1.10;1.00;;;22.10;58.90;;;;;;4989812;28;20427;-65
2023/10/05 06:13:13;;;;;;;1.50;1.00;;;22.10;58.80;;;;;;4988533;28;20450;-66
2023/10/05 06:15:39;;;;;;;1.10;0.90;;;22.10;58.80;;;;;;4991561;28;20455;-66
2023/10/05 06:18:05;;;;;;;1.30;1.20;;;22.00;58.80;;;;;;4992856;28;20439;-67
2023/10/05 06:20:31;;;;;;;1.17;1.07;;;22.00;58.80;;;;;;4995154;28;20478;-67
2023/10/05 06:22:58;;;;;;;1.10;1.00;;;22.00;58.80;;;;;;4998284;28;20431;-66
2023/10/05 06:25:25;;;;;;;1.50;1.03;;;22.00;58.80;;;;;;5012134;28;20419;-66
2023/10/05 06:27:51;;;;;;;1.27;1.03;;;22.10;58.90;;;;;;5013179;28;20415;-65
2023/10/05 06:30:17;;;;;;;1.40;1.00;;;22.10;59.40;;;;;;5012677;28;20422;-66
2023/10/05 06:32:47;;;;;;;1.20;1.10;;;22.00;58.80;;;;;;5011861;28;20601;-67
2023/10/05 06:35:12;;;;;;;1.10;1.00;;;22.00;58.80;;;;;;5011785;28;20459;-66
2023/10/05 06:37:40;;;;;;;1.30;1.10;;;22.00;58.80;;;;;;5011963;28;20462;-65
2023/10/05 06:40:12;;;;;;;1.10;0.87;;;22.00;58.80;;;;;;5011895;28;20195;-65
2023/10/05 06:42:43;;;;;;;1.57;1.20;;;22.00;58.80;;;;;;5011998;28;20415;-66
2023/10/05 06:45:13;;;;;;;1.20;1.00;;;22.00;58.80;;;;;;4993759;28;20812;-67
2023/10/05 06:47:39;;;;;;;1.53;1.30;;;22.00;58.80;;;;;;5011955;28;20525;-67
2023/10/05 06:50:09;;;;;;;1.30;0.90;;;22.00;58.80;;;;;;5012273;28;20415;-66
2023/10/05 06:52:55;;;;;;;1.40;1.00;;;22.00;58.80;;;;;;5013057;28;20463;-66
2023/10/05 06:55:24;;;;;;;1.10;0.80;;;22.10;58.90;;;;;;5011563;28;20463;-66
2023/10/05 06:57:50;;;;;;;1.40;0.93;;;22.00;58.90;;;;;;5011192;28;20427;-65
2023/10/05 07:00:20;;;;;;;1.57;0.90;;;22.00;58.80;;;;;;5011909;28;20862;-66
2023/10/05 07:02:47;;;;;;;1.40;1.03;;;22.00;58.80;;;;;;5011655;28;20633;-65
2023/10/05 07:05:13;;;;;;;1.40;0.97;;;22.00;58.80;;;;;;5011357;28;20452;-66
2023/10/05 07:07:40;;;;;;;1.13;1.00;;;22.00;58.80;;;;;;5011473;28;20462;-66
2023/10/05 07:10:07;;;;;;;1.13;0.97;;;22.00;58.80;;;;;;4995987;28;20529;-65
2023/10/05 07:12:47;;;;;;;1.17;1.00;;;22.00;58.80;;;;;;5018333;28;20426;-64
2023/10/05 07:15:14;;;;;;;1.03;0.80;;;22.00;58.80;;;;;;5013464;28;20488;-66
2023/10/05 07:17:40;;;;;;;0.93;0.83;;;22.00;58.90;;;;;;4993367;28;20432;-65
2023/10/05 07:20:11;;;;;;;1.20;0.80;;;22.00;58.90;;;;;;4995965;28;20431;-65
2023/10/05 07:22:40;;;;;;;1.40;0.80;;;22.00;58.80;;;;;;5011856;28;20749;-66
2023/10/05 07:25:08;;;;;;;1.13;0.77;;;22.00;58.90;;;;;;5011103;28;20415;-65
2023/10/05 07:27:34;;;;;;;1.00;0.83;;;22.00;58.90;;;;;;5010414;28;20423;-65
2023/10/05 07:30:03;;;;;;;1.20;0.90;;;22.00;58.90;;;;;;5011241;28;20419;-65
2023/10/05 07:32:30;;;;;;;1.50;1.00;;;22.00;58.90;;;;;;5005092;28;20548;-63
2023/10/05 07:34:55;;;;;;;1.40;0.90;;;22.00;58.90;;;;;;4973889;28;20474;-65
2023/10/05 07:37:21;;;;;;;1.20;0.97;;;22.00;58.90;;;;;;4991175;28;20796;-64
2023/10/05 07:39:47;;;;;;;1.30;1.00;;;22.00;58.90;;;;;;4990901;28;20177;-65
2023/10/05 07:42:12;;;;;;;1.20;1.10;;;22.00;58.90;;;;;;5005865;28;20611;-67
2023/10/05 07:44:39;;;;;;;1.17;1.07;;;22.00;58.90;;;;;;4992488;28;20486;-63
2023/10/05 07:47:05;;;;;;;1.30;1.00;;;22.00;58.90;;;;;;5010401;28;20176;-65
2023/10/05 07:49:34;;;;;;;1.47;1.00;;;22.00;58.90;;;;;;5010629;28;20423;-65
2023/10/05 07:52:07;;;;;;;1.17;0.87;;;22.00;58.90;;;;;;4992661;28;21256;-66
2023/10/05 07:54:34;;;;;;;1.63;1.07;;;22.00;58.90;;;;;;5010191;28;20498;-66
2023/10/05 07:57:03;;;;;;;1.10;0.90;;;22.00;58.90;;;;;;5010454;28;20898;-65
2023/10/05 07:59:41;;;;;;;0.97;0.80;;;22.00;58.90;;;;;;5010182;28;20436;-66
2023/10/05 08:02:14;;;;;;;1.13;0.93;;;22.00;58.90;;;;;;5011415;28;20407;-69
2023/10/05 08:04:40;;;;;;;1.10;1.00;;;22.00;58.90;;;;;;5011497;28;20955;-68
2023/10/05 08:07:07;;;;;;;1.13;0.90;;;22.00;58.90;;;;;;5011336;28;20415;-65
2023/10/05 08:09:34;;;;;;;1.30;0.97;;;22.00;58.90;;;;;;4998964;28;21044;-65
2023/10/05 08:11:59;;;;;;;1.40;1.10;;;22.00;58.90;;;;;;4973167;28;20435;-67
2023/10/05 08:14:26;;;;;;;1.00;0.90;;;22.00;58.90;;;;;;4990356;28;20525;-67
2023/10/05 08:16:53;;;;;;;1.10;0.90;;;22.00;58.90;;;;;;4990443;28;20646;-67
2023/10/05 08:19:19;;;;;;;1.00;0.90;;;22.00;58.90;;;;;;4990560;28;20412;-66
2023/10/05 08:21:45;;;;;;;1.47;0.97;;;22.00;58.90;;;;;;4994838;28;20862;-66
2023/10/05 08:24:13;;;;;;;0.97;0.87;;;22.00;58.90;;;;;;5008069;28;20559;-66
2023/10/05 08:26:41;;;;;;;1.50;0.93;;;22.00;58.90;;;;;;5010811;28;20510;-67
2023/10/05 08:29:07;;;;;;;0.97;0.80;;;22.00;58.90;;;;;;5011835;28;20889;-67
2023/10/05 08:31:36;;;;;;;1.33;0.70;;;22.00;59.00;;;;;;5008764;28;20514;-66
2023/10/05 08:34:03;;;;;;;1.03;0.80;;;22.00;58.90;;;;;;5001306;28;20235;-67
2023/10/05 08:36:30;;;;;;;1.27;1.00;;;22.00;58.90;;;;;;5016101;28;20465;-67
2023/10/05 08:39:00;;;;;;;1.30;0.90;;;22.00;58.90;;;;;;5009661;28;20399;-68
2023/10/05 08:41:31;;;;;;;1.10;1.00;;;22.00;58.90;;;;;;5006552;28;20874;-64
2023/10/05 08:44:01;;;;;;;1.20;0.90;;;22.00;58.90;;;;;;5009652;28;20458;-68
2023/10/05 08:46:27;;;;;;;0.80;0.70;;;22.00;58.90;;;;;;5009341;28;20513;-66
2023/10/05 08:48:55;;;;;;;1.10;0.80;;;22.00;58.90;;;;;;5009769;28;20999;-64
2023/10/05 08:51:24;;;;;;;1.00;0.90;;;22.00;59.00;;;;;;5009280;28;20404;-62
2023/10/05 08:53:54;;;;;;;1.30;0.97;;;22.00;58.90;;;;;;5009222;28;20975;-65
2023/10/05 08:56:22;;;;;;;1.10;0.80;;;22.00;58.90;;;;;;5010767;28;20883;-66
2023/10/05 08:58:48;;;;;;;1.00;0.80;;;22.00;58.90;;;;;;5010475;28;20455;-66
2023/10/05 09:01:24;;;;;;;1.07;0.83;;;22.00;59.00;;;;;;5009360;28;20450;-67
2023/10/05 09:04:01;;;;;;;1.53;0.97;;;22.00;58.90;;;;;;5009354;28;20504;-66
2023/10/05 09:06:30;;;;;;;1.50;0.90;;;22.00;59.00;;;;;;5017507;28;20410;-65
2023/10/05 09:11:32;;;;;;;0.97;0.80;;;22.00;59.00;;;;;;5009178;28;20840;-65
2023/10/05 09:14:12;;;;;;;1.20;1.00;;;22.00;59.00;;;;;;4987106;28;20448;-65
2023/10/05 09:16:42;;;;;;;1.27;0.97;;;22.00;59.00;;;;;;4986340;28;21258;-63
2023/10/05 09:19:15;;;;;;;1.30;0.97;;;22.00;59.00;;;;;;5011014;28;20442;-66
2023/10/05 09:21:51;;;;;;;1.13;0.80;;;22.00;59.00;;;;;;5010990;28;20837;-66
2023/10/05 09:24:21;;;;;;;1.47;0.80;;;22.00;59.00;;;;;;5010689;28;20437;-65
2023/10/05 09:26:55;;;;;;;1.47;1.00;;;22.00;59.00;;;;;;5010859;28;20392;-66
2023/10/05 09:29:22;;;;;;;1.10;0.90;;;22.00;59.00;;;;;;5010863;28;20403;-65
2023/10/05 09:31:53;;;;;;;1.10;1.00;;;22.00;59.00;;;;;;4991762;28;20514;-65
2023/10/05 09:34:43;;;;;;;1.30;1.10;;;22.00;59.50;;;;;;5010767;28;20458;-66
2023/10/05 09:37:11;;;;;;;0.90;0.70;;;22.00;58.90;;;;;;5010510;28;20463;-65
2023/10/05 09:39:44;;;;;;;1.07;0.87;;;22.00;59.00;;;;;;5010489;28;20506;-67
2023/10/05 09:42:17;;;;;;;1.40;0.87;;;22.00;59.00;;;;;;5011030;28;20400;-65
2023/10/05 09:44:50;;;;;;;1.10;0.90;;;22.00;59.00;;;;;;5010668;28;20430;-65
2023/10/05 09:47:18;;;;;;;1.30;1.20;;;22.00;59.00;;;;;;5010672;28;20395;-66
2023/10/05 09:49:45;;;;;;;1.30;1.00;;;22.00;59.00;;;;;;5012024;28;20855;-66
2023/10/05 09:52:12;;;;;;;1.13;0.83;;;22.00;59.00;;;;;;5014404;28;20438;-66
2023/10/05 09:54:40;;;;;;;1.00;0.80;;;22.00;58.90;;;;;;5014263;28;20825;-65
2023/10/05 09:57:10;;;;;;;1.13;0.90;;;22.00;59.00;;;;;;5014287;28;20486;-65
2023/10/05 09:59:44;;;;;;;1.40;1.13;;;22.00;59.00;;;;;;5014205;28;20767;-64
2023/10/05 10:02:16;;;;;;;1.13;0.90;;;22.00;58.90;;;;;;5014436;28;20391;-66
2023/10/05 10:04:46;;;;;;;1.10;0.80;;;22.00;59.00;;;;;;5014202;28;20437;-67
2023/10/05 10:07:22;;;;;;;1.43;1.17;;;22.00;58.90;;;;;;5014466;28;20453;-65
2023/10/05 10:09:53;;;;;;;1.30;1.00;;;22.00;58.90;;;;;;5014145;28;20403;-64
2023/10/05 10:12:38;;;;;;;1.80;1.10;;;22.00;58.90;;;;;;5014135;28;20425;-62
2023/10/05 10:15:05;;;;;;;1.30;1.10;;;22.00;58.90;;;;;;4996186;28;20466;-63
2023/10/05 10:17:31;;;;;;;1.20;1.00;;;22.00;58.90;;;;;;5013859;28;20418;-66
2023/10/05 10:20:18;;;;;;;1.33;0.90;;;22.00;58.90;;;;;;5013801;28;20407;-63
2023/10/05 10:22:55;;;;;;;1.50;1.13;;;22.00;58.90;;;;;;5013966;28;20409;-65
2023/10/05 10:25:30;;;;;;;1.90;1.00;;;22.00;58.90;;;;;;5013761;28;20446;-65
2023/10/05 10:28:45;;;;;;;1.27;1.10;;;22.00;58.90;;;;;;5013699;28;20785;-65
2023/10/05 10:31:22;;;;;;;1.00;0.83;;;22.00;58.90;;;;;;5013930;28;20399;-65
2023/10/05 10:33:51;;;;;;;1.40;1.00;;;22.00;58.90;;;;;;5012918;28;20435;-65
2023/10/05 10:36:46;;;;;;;1.90;1.30;;;22.00;58.90;;;;;;4995671;28;20446;-66
2023/10/05 10:39:27;;;;;;;1.37;1.00;;;22.00;58.90;;;;;;5013522;28;20410;-66
2023/10/05 10:42:18;;;;;;;2.00;1.20;;;22.00;59.00;;;;;;5013481;28;20386;-65
2023/10/05 10:47:14;;;;;;;1.20;1.03;;;22.00;58.90;;;;;;5013369;28;20431;-65
2023/10/05 10:49:40;;;;;;;1.97;1.00;;;22.00;58.90;;;;;;4995654;28;20431;-65
2023/10/05 10:52:12;;;;;;;3.17;1.20;;;22.00;58.90;;;;;;5013388;28;20426;-64
2023/10/05 10:54:45;;;;;;;1.37;1.03;;;22.00;58.90;;;;;;5013329;28;20239;-66
2023/10/05 10:57:20;;;;;;;1.20;1.10;;;22.00;58.90;;;;;;5013195;28;20396;-66
2023/10/05 10:59:46;;;;;;;1.20;0.97;;;22.00;58.90;;;;;;5013023;28;20490;-65
2023/10/05 11:02:19;;;;;;;1.97;1.13;;;22.00;58.90;;;;;;5013422;28;20419;-65
2023/10/05 11:04:47;;;;;;;1.57;1.00;;;22.00;58.90;;;;;;5012885;28;20497;-66
2023/10/05 11:07:13;;;;;;;1.40;1.10;;;22.00;58.90;;;;;;5013056;28;20510;-66
2023/10/05 11:09:48;;;;;;;1.40;1.00;;;22.00;58.90;;;;;;5012949;28;20498;-66
2023/10/05 11:12:17;;;;;;;1.30;1.00;;;22.00;58.90;;;;;;5012857;28;20466;-63
2023/10/05 11:14:43;;;;;;;1.23;1.07;;;22.00;58.90;;;;;;5012771;28;20541;-66
2023/10/05 11:17:35;;;;;;;2.17;1.30;;;22.00;58.90;;;;;;5012901;28;20836;-66
2023/10/05 11:20:20;;;;;;;1.70;1.50;;;22.10;58.90;;;;;;5012768;28;20921;-65
2023/10/05 11:22:46;;;;;;;1.50;1.27;;;22.00;58.80;;;;;;5012735;28;20888;-66
2023/10/05 11:25:15;;;;;;;2.07;1.77;;;22.00;58.80;;;;;;4995163;28;20411;-65
2023/10/05 11:27:44;;;;;;;2.80;2.00;;;22.00;58.80;;;;;;5012582;28;20176;-67
2023/10/05 11:30:18;;;;;;;2.50;1.63;;;22.00;58.80;;;;;;5012539;28;20465;-67
2023/10/05 11:32:45;;;;;;;2.90;1.73;;;22.00;58.80;;;;;;5012558;28;20480;-65
2023/10/05 11:35:15;;;;;;;2.13;1.63;;;22.00;58.80;;;;;;5012128;28;20486;-66
2023/10/05 11:37:44;;;;;;;4.03;2.10;;;22.00;59.30;;;;;;4995305;28;20408;-64
2023/10/05 11:40:19;;;;;;;1.87;1.50;;;22.00;58.80;;;;;;5012484;28;20458;-64
2023/10/05 11:42:48;;;;;;;1.53;1.10;;;22.00;58.80;;;;;;5012537;28;20395;-66
2023/10/05 11:45:16;;;;;;;2.43;1.70;;;22.00;58.90;;;;;;5012198;28;20415;-66
2023/10/05 11:47:56;;;;;;;2.63;1.73;;;22.00;58.80;;;;;;5012080;28;20531;-66
2023/10/05 11:50:25;;;;;;;2.27;1.30;;;22.00;58.80;;;;;;5012279;28;20400;-67
2023/10/05 11:52:54;;;;;;;1.50;1.20;;;22.00;58.80;;;;;;5011791;28;20415;-67
2023/10/05 11:55:20;;;;;;;1.83;1.47;;;22.00;58.90;;;;;;5012289;28;20826;-65
2023/10/05 11:57:46;;;;;;;2.73;1.73;;;22.00;58.90;;;;;;5012102;28;20420;-66
2023/10/05 12:00:13;;;;;;;3.10;2.30;;;22.00;58.90;;;;;;5012044;28;20886;-67
2023/10/05 12:02:39;;;;;;;3.27;1.80;;;22.00;58.80;;;;;;5012016;28;20173;-65
2023/10/05 12:05:05;;;;;;;2.60;1.80;;;22.00;58.80;;;;;;4994599;28;20427;-66
2023/10/05 12:07:31;;;;;;;2.47;1.73;;;22.00;58.80;;;;;;5011878;28;20188;-65
2023/10/05 12:09:57;;;;;;;4.17;1.93;;;22.00;58.80;;;;;;5011155;28;20423;-65
2023/10/05 12:12:23;;;;;;;3.87;1.77;;;22.00;58.80;;;;;;5011265;28;20412;-66
2023/10/05 12:14:49;;;;;;;3.10;1.67;;;22.00;58.80;;;;;;5011691;28;20204;-66
2023/10/05 12:17:16;;;;;;;2.63;1.50;;;22.00;58.80;;;;;;5011896;28;20426;-67
2023/10/05 12:19:42;;;;;;;3.00;1.93;;;22.00;58.80;;;;;;4994129;28;20218;-66
2023/10/05 12:22:13;;;;;;;2.20;1.93;;;22.00;58.90;;;;;;5011727;28;20924;-66
2023/10/05 12:24:40;;;;;;;3.50;1.60;;;22.00;58.80;;;;;;5011672;28;20192;-66
2023/10/05 12:27:18;;;;;;;3.07;2.00;;;22.00;58.80;;;;;;4993945;28;20426;-66
2023/10/05 12:29:45;;;;;;;3.60;1.93;;;22.00;58.90;;;;;;5011553;28;20395;-66
2023/10/05 12:32:13;;;;;;;5.37;1.83;;;22.00;58.80;;;;;;5011579;28;20415;-66
2023/10/05 12:34:42;;;;;;;2.90;2.20;;;22.00;58.80;;;;;;5011659;28;20462;-65
2023/10/05 12:37:08;;;;;;;3.47;2.07;;;22.00;58.80;;;;;;5011259;28;20518;-66
2023/10/05 12:39:34;;;;;;;5.13;2.17;;;22.00;58.80;;;;;;5011407;28;21001;-66
2023/10/05 12:42:00;;;;;;;4.07;2.23;;;22.00;58.80;;;;;;5011317;28;20180;-65
2023/10/05 12:44:27;;;;;;;2.97;2.00;;;22.00;58.80;;;;;;5011267;28;20215;-64
2023/10/05 12:46:53;;;;;;;4.03;1.90;;;22.00;58.90;;;;;;5011296;28;20416;-66
2023/10/05 12:49:20;;;;;;;3.73;1.67;;;22.00;58.90;;;;;;5011334;28;20438;-65
2023/10/05 12:51:52;;;;;;;3.83;1.90;;;22.00;58.80;;;;;;5011338;28;20447;-65
2023/10/05 12:54:18;;;;;;;5.23;2.33;;;22.00;58.90;;;;;;5011238;28;20471;-65
2023/10/05 12:56:51;;;;;;;3.57;1.80;;;22.00;58.80;;;;;;5011180;28;20419;-65
2023/10/05 12:59:17;;;;;;;3.13;1.80;;;22.00;58.90;;;;;;5011205;28;20161;-65
2023/10/05 13:01:42;;;;;;;3.07;2.00;;;22.00;58.80;;;;;;4993408;28;20461;-66
2023/10/05 13:04:12;;;;;;;2.63;1.70;;;22.00;58.90;;;;;;5011053;28;20889;-65
2023/10/05 13:06:38;;;;;;;2.90;2.10;;;22.00;58.90;;;;;;5011040;28;20180;-67
2023/10/05 13:09:11;;;;;;;2.70;1.50;;;22.00;58.90;;;;;;5011009;28;20422;-66
2023/10/05 13:11:44;;;;;;;2.43;1.70;;;22.00;58.90;;;;;;5011232;28;20412;-66
2023/10/05 13:14:14;;;;;;;2.80;1.90;;;22.00;58.90;;;;;;5010865;28;20505;-66
2023/10/05 13:16:40;;;;;;;3.80;1.70;;;22.00;58.90;;;;;;5010687;28;20422;-66
2023/10/05 13:19:09;;;;;;;2.43;1.90;;;22.00;58.90;;;;;;5011105;28;20424;-66
2023/10/05 13:21:39;;;;;;;3.13;1.83;;;22.00;58.90;;;;;;5010764;28;20407;-66